Time;durP1;ratioP1;P1;durP2;ratioP2;P2;SDS_P1;SDS_P2;PMS_P1;PMS_P2;Temp;Humidity;BMP_temperature;BMP_pressure;BME280_temperature;BME280_humidity;BME280_pressure;Samples;Min_cycle;Max_cycle;Signal;HPM_P1;HPM_P2
2022/11/27 00:01:20;;;;;;;;;;;;;;;21.41;34.49;96048.06;6123736;19;2096;-65
2022/11/27 00:03:23;;;;;;;;;;;;;;;21.45;34.98;96045.81;6126288;19;1935;-65
2022/11/27 00:05:26;;;;;;;;;;;;;;;21.47;34.52;96045.63;6123408;19;2098;-65
2022/11/27 00:07:32;;;;;;;;;;;;;;;21.39;35.23;96046.59;6096631;19;2300;-65
2022/11/27 00:09:36;;;;;;;;;;;;;;;21.44;34.94;96049.53;6123779;19;2085;-65
2022/11/27 00:11:40;;;;;;;;;;;;;;;21.50;35.03;96054.09;6125063;19;2259;-65
2022/11/27 00:13:43;;;;;;;;;;;;;;;21.51;35.23;96049.56;6123302;19;1755;-65
2022/11/27 00:15:46;;;;;;;;;;;;;;;21.50;35.12;96051.41;6125764;19;1845;-65
2022/11/27 00:17:50;;;;;;;;;;;;;;;21.45;34.83;96044.00;6110255;19;1910;-65
2022/11/27 00:19:53;;;;;;;;;;;;;;;21.50;35.01;96035.38;6115766;19;1814;-65
2022/11/27 00:21:56;;;;;;;;;;;;;;;21.47;34.70;96038.44;6121049;19;1029;-65
2022/11/27 00:24:04;;;;;;;;;;;;;;;21.49;34.98;96032.91;6121960;19;1614;-65
2022/11/27 00:26:08;;;;;;;;;;;;;;;21.49;34.68;96044.44;6124022;19;2039;-65
2022/11/27 00:28:11;;;;;;;;;;;;;;;21.48;35.29;96048.09;6124298;19;2079;-65
2022/11/27 00:30:15;;;;;;;;;;;;;;;21.52;34.78;96048.56;6096539;19;2100;-65
2022/11/27 00:32:18;;;;;;;;;;;;;;;21.47;34.76;96062.50;6122426;19;2019;-65
2022/11/27 00:34:21;;;;;;;;;;;;;;;21.45;35.29;96061.84;6123839;19;1903;-65
2022/11/27 00:36:25;;;;;;;;;;;;;;;21.44;34.82;96058.38;6123186;19;1900;-65
2022/11/27 00:38:28;;;;;;;;;;;;;;;21.42;35.21;96060.38;6124964;19;1974;-65
2022/11/27 00:40:34;;;;;;;;;;;;;;;21.45;35.17;96059.19;6112194;19;2088;-65
2022/11/27 00:42:37;;;;;;;;;;;;;;;21.41;34.93;96063.28;6109996;19;1963;-65
2022/11/27 00:44:40;;;;;;;;;;;;;;;21.40;34.83;96061.63;6123968;19;2098;-64
2022/11/27 00:46:44;;;;;;;;;;;;;;;21.40;34.63;96061.63;6123575;19;1974;-65
2022/11/27 00:48:48;;;;;;;;;;;;;;;21.43;34.86;96062.06;6123392;19;1590;-65
2022/11/27 00:50:51;;;;;;;;;;;;;;;21.36;34.91;96060.34;6120255;19;1849;-65
2022/11/27 00:52:54;;;;;;;;;;;;;;;21.35;34.73;96058.69;6094977;19;2073;-65
2022/11/27 00:54:57;;;;;;;;;;;;;;;21.33;34.79;96058.06;6119887;19;1991;-65
2022/11/27 00:57:03;;;;;;;;;;;;;;;21.31;34.57;96058.22;6124217;19;2084;-65
2022/11/27 00:59:07;;;;;;;;;;;;;;;21.34;35.13;96068.56;6123552;19;1830;-65
2022/11/27 01:01:10;;;;;;;;;;;;;;;21.35;34.61;96056.84;6123524;19;1951;-65
2022/11/27 01:03:14;;;;;;;;;;;;;;;21.32;35.16;96051.06;6122347;19;1792;-65
2022/11/27 01:05:17;;;;;;;;;;;;;;;21.30;34.97;96056.59;6094859;19;1639;-65
2022/11/27 01:07:20;;;;;;;;;;;;;;;21.34;34.86;96059.69;6122157;19;2076;-65
2022/11/27 01:09:23;;;;;;;;;;;;;;;21.33;35.29;96061.53;6122322;19;970;-65
2022/11/27 01:11:28;;;;;;;;;;;;;;;21.32;35.12;96053.72;6120018;19;1849;-65
2022/11/27 01:13:35;;;;;;;;;;;;;;;21.37;35.59;96051.28;6123139;19;1820;-64
2022/11/27 01:15:38;;;;;;;;;;;;;;;21.34;34.97;96046.31;6097411;19;2024;-64
2022/11/27 01:17:42;;;;;;;;;;;;;;;21.32;35.18;96046.53;6121115;19;2081;-64
2022/11/27 01:19:45;;;;;;;;;;;;;;;21.34;34.96;96046.31;6121752;19;1913;-65
2022/11/27 01:21:48;;;;;;;;;;;;;;;21.38;34.89;96050.28;6120309;19;2002;-65
2022/11/27 01:23:52;;;;;;;;;;;;;;;21.41;35.12;96041.88;6122681;19;2033;-65
2022/11/27 01:25:55;;;;;;;;;;;;;;;21.44;35.11;96045.00;6122604;19;1786;-64
2022/11/27 01:27:58;;;;;;;;;;;;;;;21.40;35.84;96041.06;6093511;19;2035;-65
2022/11/27 01:30:05;;;;;;;;;;;;;;;21.39;36.31;96044.72;6119934;19;1845;-65
2022/11/27 01:32:08;;;;;;;;;;;;;;;21.43;35.96;96038.00;6122256;19;1928;-65
2022/11/27 01:34:15;;;;;;;;;;;;;;;21.47;35.79;96046.47;6120467;19;2033;-65
2022/11/27 01:36:18;;;;;;;;;;;;;;;21.50;36.22;96046.06;6120384;19;1596;-65
2022/11/27 01:38:21;;;;;;;;;;;;;;;21.50;35.75;96045.25;6108171;19;1921;-65
2022/11/27 01:40:25;;;;;;;;;;;;;;;21.43;35.72;96042.53;6109925;19;1954;-65
2022/11/27 01:42:28;;;;;;;;;;;;;;;21.48;36.04;96041.94;6121369;19;1916;-65
2022/11/27 01:44:47;;;;;;;;;;;;;;;21.51;36.33;96033.53;6119870;19;1061;-65
2022/11/27 01:46:53;;;;;;;;;;;;;;;21.48;36.02;96032.06;6122865;19;2046;-65
2022/11/27 01:48:59;;;;;;;;;;;;;;;21.51;35.88;96036.19;6122346;19;2026;-65
2022/11/27 01:51:02;;;;;;;;;;;;;;;21.51;35.70;96029.00;6095462;19;1854;-65
2022/11/27 01:53:09;;;;;;;;;;;;;;;21.48;35.45;96029.38;6122904;19;1914;-65
2022/11/27 01:55:19;;;;;;;;;;;;;;;21.43;35.91;96027.31;6121875;19;1930;-65
2022/11/27 01:57:24;;;;;;;;;;;;;;;21.42;36.02;96028.31;6122080;19;1928;-64
2022/11/27 01:59:27;;;;;;;;;;;;;;;21.44;35.55;96020.09;6121150;19;2175;-65
2022/11/27 02:01:31;;;;;;;;;;;;;;;21.45;35.77;96027.09;6106327;19;2212;-65
2022/11/27 02:03:36;;;;;;;;;;;;;;;21.44;35.57;96036.16;6106919;19;1885;-65
2022/11/27 02:05:40;;;;;;;;;;;;;;;21.41;35.38;96031.19;6119529;19;1925;-65
2022/11/27 02:07:43;;;;;;;;;;;;;;;21.39;35.50;96027.88;6120258;19;1796;-65
2022/11/27 02:09:47;;;;;;;;;;;;;;;21.40;35.82;96029.53;6122075;19;2088;-65
2022/11/27 02:11:55;;;;;;;;;;;;;;;21.35;35.77;96032.78;6120045;19;1986;-65
2022/11/27 02:14:04;;;;;;;;;;;;;;;21.33;35.44;96032.13;6092765;19;1916;-65
2022/11/27 02:16:13;;;;;;;;;;;;;;;21.34;35.25;96027.63;6121577;19;1932;-65
2022/11/27 02:18:21;;;;;;;;;;;;;;;21.33;35.64;96036.66;6121059;19;2181;-65
2022/11/27 02:20:32;;;;;;;;;;;;;;;21.32;35.42;96040.38;6118762;19;1907;-65
2022/11/27 02:22:44;;;;;;;;;;;;;;;21.30;35.80;96042.41;6119639;19;2333;-65
2022/11/27 02:24:52;;;;;;;;;;;;;;;21.32;35.39;96043.88;6096871;19;2091;-64
2022/11/27 02:27:10;;;;;;;;;;;;;;;21.33;35.89;96028.63;6119592;19;1661;-65
2022/11/27 02:29:18;;;;;;;;;;;;;;;21.31;35.85;96036.84;6120540;19;2090;-65
2022/11/27 02:31:23;;;;;;;;;;;;;;;21.33;35.40;96039.34;6121341;19;1956;-63
2022/11/27 02:33:28;;;;;;;;;;;;;;;21.37;35.96;96041.44;6121612;19;1913;-62
2022/11/27 02:35:33;;;;;;;;;;;;;;;21.36;35.70;96039.78;6116869;19;1624;-65
2022/11/27 02:37:38;;;;;;;;;;;;;;;21.37;35.89;96040.59;6100364;19;2040;-66
2022/11/27 02:39:44;;;;;;;;;;;;;;;21.37;36.10;96046.78;6121641;19;1956;-66
2022/11/27 02:41:50;;;;;;;;;;;;;;;21.35;36.02;96048.81;6120974;19;2008;-66
2022/11/27 02:43:54;;;;;;;;;;;;;;;21.38;35.48;96035.06;6122858;19;1905;-66
2022/11/27 02:46:01;;;;;;;;;;;;;;;21.36;35.36;96034.44;6118370;19;1002;-66
2022/11/27 02:48:05;;;;;;;;;;;;;;;21.30;36.09;96043.22;6094485;19;2110;-66
2022/11/27 02:50:11;;;;;;;;;;;;;;;21.37;35.86;96043.28;6117463;19;1718;-65
2022/11/27 02:52:15;;;;;;;;;;;;;;;21.36;36.23;96045.13;6121112;19;2188;-65
2022/11/27 02:54:22;;;;;;;;;;;;;;;21.41;35.73;96037.34;6119959;19;2156;-65
2022/11/27 02:56:26;;;;;;;;;;;;;;;21.42;35.95;96036.31;6118925;19;1886;-66
2022/11/27 02:58:30;;;;;;;;;;;;;;;21.46;35.75;96042.16;6111247;19;1937;-65
2022/11/27 03:00:34;;;;;;;;;;;;;;;21.48;36.05;96036.59;6103741;19;2193;-66
2022/11/27 03:02:42;;;;;;;;;;;;;;;21.48;35.94;96042.75;6120182;19;1912;-66
2022/11/27 03:04:48;;;;;;;;;;;;;;;21.43;36.08;96037.19;6119879;19;1724;-66
2022/11/27 03:06:54;;;;;;;;;;;;;;;21.45;35.97;96038.66;6121305;19;1930;-67
2022/11/27 03:09:00;;;;;;;;;;;;;;;21.54;35.66;96039.34;6118925;19;1925;-66
2022/11/27 03:11:05;;;;;;;;;;;;;;;21.48;35.69;96037.41;6097847;19;2046;-65
2022/11/27 03:13:09;;;;;;;;;;;;;;;21.48;35.78;96040.06;6125237;19;1926;-66
2022/11/27 03:15:13;;;;;;;;;;;;;;;21.43;36.09;96043.34;6126271;19;1852;-66
2022/11/27 03:17:22;;;;;;;;;;;;;;;21.49;35.87;96039.06;6123132;19;2065;-66
2022/11/27 03:19:32;;;;;;;;;;;;;;;21.45;35.99;96043.13;6124761;19;1957;-66
2022/11/27 03:21:37;;;;;;;;;;;;;;;21.45;35.58;96041.31;6114688;19;2058;-66
2022/11/27 03:23:40;;;;;;;;;;;;;;;21.41;35.75;96045.38;6109731;19;2098;-66
2022/11/27 03:25:44;;;;;;;;;;;;;;;21.42;35.67;96048.88;6122010;19;2127;-66
2022/11/27 03:27:50;;;;;;;;;;;;;;;21.42;35.87;96043.53;6123461;19;1916;-65
2022/11/27 03:29:56;;;;;;;;;;;;;;;21.42;35.88;96040.84;6126744;19;2121;-66
2022/11/27 03:31:59;;;;;;;;;;;;;;;21.37;35.60;96051.28;6124609;19;1920;-66
2022/11/27 03:34:03;;;;;;;;;;;;;;;21.34;35.67;96049.00;6095290;19;2122;-65
2022/11/27 03:36:15;;;;;;;;;;;;;;;21.32;35.84;96048.38;6124368;19;1913;-66
2022/11/27 03:38:18;;;;;;;;;;;;;;;21.34;35.62;96043.66;6127529;19;2192;-65
2022/11/27 03:40:21;;;;;;;;;;;;;;;21.36;35.70;96038.94;6122069;19;2208;-66
2022/11/27 03:42:29;;;;;;;;;;;;;;;21.34;35.79;96046.31;6124990;19;2092;-66
2022/11/27 03:44:36;;;;;;;;;;;;;;;21.31;35.64;96044.03;6114688;19;2178;-65
2022/11/27 03:46:47;;;;;;;;;;;;;;;21.38;36.05;96040.41;6111156;19;1733;-65
2022/11/27 03:48:54;;;;;;;;;;;;;;;21.34;36.11;96046.31;6125466;19;1675;-65
2022/11/27 03:51:03;;;;;;;;;;;;;;;21.30;35.79;96045.06;6124199;19;1873;-66
2022/11/27 03:53:12;;;;;;;;;;;;;;;21.33;36.17;96036.66;6127573;19;1942;-65
2022/11/27 03:55:19;;;;;;;;;;;;;;;21.44;36.80;96041.50;6121092;19;974;-68
2022/11/27 03:57:24;;;;;;;;;;;;;;;21.45;36.35;96037.78;6098895;19;1958;-66
2022/11/27 03:59:29;;;;;;;;;;;;;;;21.47;36.58;96038.44;6126515;19;2190;-64
2022/11/27 04:01:32;;;;;;;;;;;;;;;21.49;36.40;96043.59;6123241;19;2050;-66
2022/11/27 04:03:36;;;;;;;;;;;;;;;21.40;36.52;96038.38;6125089;19;1998;-66
2022/11/27 04:05:39;;;;;;;;;;;;;;;21.43;36.48;96038.00;6125645;19;2426;-66
2022/11/27 04:07:43;;;;;;;;;;;;;;;21.36;35.92;96022.91;6098702;19;1677;-66
2022/11/27 04:09:48;;;;;;;;;;;;;;;21.32;36.15;96029.69;6123175;19;1944;-64
2022/11/27 04:11:52;;;;;;;;;;;;;;;21.37;35.67;96032.56;6123317;19;1856;-64
2022/11/27 04:13:55;;;;;;;;;;;;;;;21.36;35.74;96028.25;6122151;19;975;-65
2022/11/27 04:16:01;;;;;;;;;;;;;;;21.30;35.94;96023.69;6123269;19;2060;-65
2022/11/27 04:18:05;;;;;;;;;;;;;;;21.34;35.78;96028.47;6124532;19;2244;-65
2022/11/27 04:20:09;;;;;;;;;;;;;;;21.31;35.42;96026.16;6097149;19;1656;-65
2022/11/27 04:22:12;;;;;;;;;;;;;;;21.27;35.74;96024.06;6122765;19;2070;-65
2022/11/27 04:24:15;;;;;;;;;;;;;;;21.34;35.67;96031.13;6124340;19;2138;-64
2022/11/27 04:26:22;;;;;;;;;;;;;;;21.33;36.02;96031.31;6124334;19;1924;-65
2022/11/27 04:28:25;;;;;;;;;;;;;;;21.38;35.49;96026.22;6122517;19;1903;-65
2022/11/27 04:30:28;;;;;;;;;;;;;;;21.39;36.12;96027.88;6096842;19;1817;-65
2022/11/27 04:32:32;;;;;;;;;;;;;;;21.36;35.83;96028.25;6122417;19;2132;-65
2022/11/27 04:34:35;;;;;;;;;;;;;;;21.44;35.59;96030.81;6122893;19;1921;-65
2022/11/27 04:36:38;;;;;;;;;;;;;;;21.44;35.50;96023.59;6123060;19;2007;-65
2022/11/27 04:38:42;;;;;;;;;;;;;;;21.47;35.67;96024.25;6122736;19;2105;-66
2022/11/27 04:40:45;;;;;;;;;;;;;;;21.48;35.73;96033.91;6125128;19;2119;-66
2022/11/27 04:42:51;;;;;;;;;;;;;;;21.47;35.98;96042.97;6095644;19;2089;-65
2022/11/27 04:44:54;;;;;;;;;;;;;;;21.47;35.85;96045.63;6124549;19;2085;-65
2022/11/27 04:46:58;;;;;;;;;;;;;;;21.44;35.82;96045.00;6123413;19;1753;-65
2022/11/27 04:49:01;;;;;;;;;;;;;;;21.47;36.00;96042.97;6125630;19;2134;-66
2022/11/27 04:51:04;;;;;;;;;;;;;;;21.43;35.90;96038.00;6126614;19;1732;-66
2022/11/27 04:53:07;;;;;;;;;;;;;;;21.41;35.83;96037.34;6110799;19;1914;-65
2022/11/27 04:55:11;;;;;;;;;;;;;;;21.42;35.74;96039.00;6109821;19;1930;-64
2022/11/27 04:57:14;;;;;;;;;;;;;;;21.40;35.99;96048.25;6125924;19;2096;-64
2022/11/27 04:59:21;;;;;;;;;;;;;;;21.40;35.60;96051.75;6123164;19;2059;-64
2022/11/27 05:01:24;;;;;;;;;;;;;;;21.41;36.81;96052.56;6122044;19;2097;-64
2022/11/27 05:03:27;;;;;;;;;;;;;;;21.44;36.04;96041.50;6123576;19;2088;-66
2022/11/27 05:05:31;;;;;;;;;;;;;;;21.37;36.03;96043.28;6094728;19;2101;-66
2022/11/27 05:07:34;;;;;;;;;;;;;;;21.42;35.83;96048.88;6122073;19;2107;-66
2022/11/27 05:09:37;;;;;;;;;;;;;;;21.36;36.29;96042.44;6122571;19;1800;-64
2022/11/27 05:11:41;;;;;;;;;;;;;;;21.35;35.88;96042.66;6121171;19;1955;-65
2022/11/27 05:13:44;;;;;;;;;;;;;;;21.29;36.55;96038.91;6123401;19;1902;-64
2022/11/27 05:15:50;;;;;;;;;;;;;;;21.31;36.02;96039.50;6110256;19;1913;-64
2022/11/27 05:17:53;;;;;;;;;;;;;;;21.32;36.04;96053.72;6108276;19;2020;-66
2022/11/27 05:19:57;;;;;;;;;;;;;;;21.25;36.04;96052.81;6119941;19;970;-66
2022/11/27 05:22:00;;;;;;;;;;;;;;;21.28;36.16;96053.25;6120831;19;1890;-66
2022/11/27 05:24:03;;;;;;;;;;;;;;;21.28;36.71;96047.91;6120647;19;1038;-66
2022/11/27 05:26:07;;;;;;;;;;;;;;;21.32;36.46;96053.72;6119903;19;1034;-65
2022/11/27 05:28:10;;;;;;;;;;;;;;;21.29;36.19;96060.28;6096915;19;1763;-65
2022/11/27 05:30:14;;;;;;;;;;;;;;;21.24;36.11;96060.03;6123294;19;2047;-65
2022/11/27 05:32:20;;;;;;;;;;;;;;;21.28;36.57;96055.13;6122302;19;2092;-66
2022/11/27 05:34:23;;;;;;;;;;;;;;;21.29;36.56;96059.47;6124621;19;2100;-66
2022/11/27 05:36:26;;;;;;;;;;;;;;;21.28;36.47;96060.47;6121428;19;1925;-66
2022/11/27 05:38:30;;;;;;;;;;;;;;;21.33;36.60;96063.41;6115029;19;3078;-66
2022/11/27 05:40:33;;;;;;;;;;;;;;;21.37;36.60;96067.31;6107145;19;2098;-66
2022/11/27 05:42:36;;;;;;;;;;;;;;;21.36;36.85;96066.50;6123065;19;1901;-68
2022/11/27 05:44:39;;;;;;;;;;;;;;;21.43;36.94;96061.25;6125059;19;2124;-68
2022/11/27 05:46:45;;;;;;;;;;;;;;;21.38;36.25;96071.69;6119283;19;1915;-67
2022/11/27 05:48:51;;;;;;;;;;;;;;;21.36;36.62;96076.38;6121404;19;1859;-67
2022/11/27 05:50:54;;;;;;;;;;;;;;;21.38;36.68;96074.34;6095605;19;1796;-67
2022/11/27 05:52:57;;;;;;;;;;;;;;;21.37;36.58;96070.00;6123053;19;2114;-67
2022/11/27 05:55:00;;;;;;;;;;;;;;;21.34;36.55;96073.91;6121489;19;1911;-67
2022/11/27 05:57:04;;;;;;;;;;;;;;;21.40;36.09;96065.13;6119401;19;1062;-69
2022/11/27 05:59:08;;;;;;;;;;;;;;;21.45;36.32;96068.06;6120978;19;2153;-69
2022/11/27 06:01:12;;;;;;;;;;;;;;;21.44;36.49;96066.38;6119828;19;1939;-69
2022/11/27 06:03:16;;;;;;;;;;;;;;;21.43;36.30;96069.28;6093845;19;1945;-69
2022/11/27 06:05:22;;;;;;;;;;;;;;;21.41;36.42;96071.28;6120682;19;1949;-67
2022/11/27 06:07:25;;;;;;;;;;;;;;;21.38;36.53;96077.84;6122830;19;2043;-69
2022/11/27 06:09:29;;;;;;;;;;;;;;;21.35;36.17;96082.75;6121927;19;1940;-70
2022/11/27 06:11:32;;;;;;;;;;;;;;;21.36;36.48;96082.56;6121960;19;1919;-70
2022/11/27 06:13:35;;;;;;;;;;;;;;;21.37;36.45;96088.72;6108932;19;1948;-66
2022/11/27 06:15:39;;;;;;;;;;;;;;;21.39;36.39;96081.34;6106251;19;2129;-69
2022/11/27 06:17:42;;;;;;;;;;;;;;;21.35;36.35;96080.09;6123188;19;2061;-69
2022/11/27 06:19:46;;;;;;;;;;;;;;;21.37;36.86;96078.03;6119569;19;1034;-69
2022/11/27 06:21:51;;;;;;;;;;;;;;;21.38;36.57;96085.88;6120865;19;2040;-67
2022/11/27 06:23:55;;;;;;;;;;;;;;;21.37;36.74;96089.56;6121998;19;2115;-68
2022/11/27 06:25:59;;;;;;;;;;;;;;;21.34;36.32;96083.75;6093664;19;1901;-66
2022/11/27 06:28:02;;;;;;;;;;;;;;;21.33;36.51;96088.28;6122258;19;2128;-69
2022/11/27 06:30:06;;;;;;;;;;;;;;;21.39;36.57;96086.69;6121326;19;2022;-69
2022/11/27 06:32:09;;;;;;;;;;;;;;;21.42;36.30;96081.78;6119350;19;2112;-66
2022/11/27 06:34:13;;;;;;;;;;;;;;;21.44;36.34;96084.28;6122964;19;1842;-70
2022/11/27 06:36:16;;;;;;;;;;;;;;;21.46;36.49;96082.25;6105319;19;1300;-68
2022/11/27 06:38:23;;;;;;;;;;;;;;;21.50;36.63;96083.50;6105504;19;1825;-70
2022/11/27 06:40:26;;;;;;;;;;;;;;;21.46;36.52;96082.25;6122575;19;1886;-69
2022/11/27 06:42:30;;;;;;;;;;;;;;;21.51;36.18;96089.69;6123012;19;2082;-67
2022/11/27 06:44:33;;;;;;;;;;;;;;;21.47;36.32;96083.06;6121140;19;2197;-69
2022/11/27 06:46:37;;;;;;;;;;;;;;;21.48;36.30;96085.53;6119169;19;1942;-70
2022/11/27 06:48:40;;;;;;;;;;;;;;;21.43;36.20;96087.97;6093751;19;1938;-68
2022/11/27 06:50:43;;;;;;;;;;;;;;;21.45;36.33;96092.13;6120116;19;1922;-68
2022/11/27 06:52:46;;;;;;;;;;;;;;;21.41;36.74;96085.50;6120714;19;1899;-70
2022/11/27 06:54:52;;;;;;;;;;;;;;;21.40;36.42;96093.72;6122635;19;2089;-71
2022/11/27 06:56:57;;;;;;;;;;;;;;;21.41;36.31;96088.16;6120264;19;2100;-66
2022/11/27 06:59:01;;;;;;;;;;;;;;;21.32;36.76;96088.50;6105885;19;1519;-68
2022/11/27 07:01:05;;;;;;;;;;;;;;;21.30;36.63;96088.66;6104419;19;2123;-67
2022/11/27 07:03:09;;;;;;;;;;;;;;;21.28;36.56;96085.34;6118278;19;1956;-68
2022/11/27 07:05:12;;;;;;;;;;;;;;;21.28;37.06;96089.88;6122260;19;1894;-68
2022/11/27 07:07:15;;;;;;;;;;;;;;;21.23;36.77;96093.13;6120390;19;1936;-67
2022/11/27 07:09:19;;;;;;;;;;;;;;;21.23;36.63;96083.25;6119471;19;2096;-67
2022/11/27 07:11:25;;;;;;;;;;;;;;;21.25;36.83;96088.41;6094383;19;1915;-67
2022/11/27 07:13:30;;;;;;;;;;;;;;;21.26;37.04;96087.41;6116864;19;1849;-67
2022/11/27 07:15:34;;;;;;;;;;;;;;;21.26;36.69;96081.22;6115143;19;1044;-67
2022/11/27 07:17:38;;;;;;;;;;;;;;;21.22;37.06;96075.41;6118282;19;2170;-67
2022/11/27 07:19:41;;;;;;;;;;;;;;;21.27;36.84;96075.69;6116227;19;1917;-67
2022/11/27 07:21:44;;;;;;;;;;;;;;;21.28;36.76;96087.19;6116452;19;2363;-67
2022/11/27 07:23:47;;;;;;;;;;;;;;;21.26;36.47;96081.22;6091178;19;1369;-67
2022/11/27 07:25:51;;;;;;;;;;;;;;;20.87;36.25;96080.56;6119099;19;1710;-71
2022/11/27 07:27:57;;;;;;;;;;;;;;;21.04;36.24;96073.16;6119349;19;1925;-68
2022/11/27 07:30:00;;;;;;;;;;;;;;;21.16;36.13;96071.63;6119176;19;2093;-70
2022/11/27 07:32:03;;;;;;;;;;;;;;;21.23;36.11;96072.56;6116719;19;1988;-69
2022/11/27 07:34:07;;;;;;;;;;;;;;;21.24;35.98;96073.38;6095973;19;2275;-65
2022/11/27 07:36:14;;;;;;;;;;;;;;;21.28;35.85;96081.84;6116013;19;2243;-68
2022/11/27 07:38:17;;;;;;;;;;;;;;;21.26;36.07;96078.56;6118529;19;1946;-69
2022/11/27 07:40:21;;;;;;;;;;;;;;;20.41;30.34;96074.63;6120069;19;1923;-67
2022/11/27 07:42:24;;;;;;;;;;;;;;;18.05;33.15;96075.97;6116514;19;2215;-68
2022/11/27 07:44:30;;;;;;;;;;;;;;;16.95;32.28;96080.75;6118324;19;2107;-70
2022/11/27 07:46:33;;;;;;;;;;;;;;;16.95;32.53;96080.75;6091223;19;2193;-71
2022/11/27 07:48:36;;;;;;;;;;;;;;;16.94;32.29;96079.09;6116671;19;974;-69
2022/11/27 07:50:40;;;;;;;;;;;;;;;16.96;31.58;96085.09;6119047;19;1924;-71
2022/11/27 07:52:44;;;;;;;;;;;;;;;17.01;30.89;96085.41;6118739;19;1948;-69
2022/11/27 07:54:47;;;;;;;;;;;;;;;16.84;30.31;96075.75;6120419;19;2122;-70
2022/11/27 07:56:50;;;;;;;;;;;;;;;16.73;30.73;96080.34;6109470;19;1957;-69
2022/11/27 07:58:54;;;;;;;;;;;;;;;16.60;30.75;96077.31;6109982;19;1922;-69
2022/11/27 08:01:00;;;;;;;;;;;;;;;16.56;30.71;96081.28;6124275;19;2175;-69
2022/11/27 08:03:03;;;;;;;;;;;;;;;16.66;30.53;96081.97;6124003;19;1767;-67
2022/11/27 08:05:07;;;;;;;;;;;;;;;16.57;30.52;96079.47;6127206;19;1827;-65
2022/11/27 08:07:11;;;;;;;;;;;;;;;17.31;31.86;96075.19;6124110;19;1832;-68
2022/11/27 08:09:14;;;;;;;;;;;;;;;18.22;30.45;96071.47;6097002;19;1384;-67
2022/11/27 08:11:21;;;;;;;;;;;;;;;19.00;30.67;96073.28;6123781;19;1038;-66
2022/11/27 08:13:25;;;;;;;;;;;;;;;19.54;29.86;96064.44;6121882;19;1924;-67
2022/11/27 08:15:28;;;;;;;;;;;;;;;19.92;29.08;96067.09;6121864;19;1098;-67
2022/11/27 08:17:34;;;;;;;;;;;;;;;20.18;28.89;96067.50;6123496;19;2199;-68
2022/11/27 08:19:37;;;;;;;;;;;;;;;20.39;28.96;96068.66;6110672;19;2018;-67
2022/11/27 08:21:40;;;;;;;;;;;;;;;19.91;29.17;96076.13;6110341;19;2155;-67
2022/11/27 08:23:44;;;;;;;;;;;;;;;18.26;29.73;96076.25;6125383;19;1908;-67
2022/11/27 08:25:47;;;;;;;;;;;;;;;16.97;31.06;96078.78;6124165;19;1934;-66
2022/11/27 08:27:50;;;;;;;;;;;;;;;16.96;31.90;96080.63;6126027;19;1907;-67
2022/11/27 08:29:54;;;;;;;;;;;;;;;16.56;31.90;96083.94;6125894;19;2085;-63
2022/11/27 08:31:57;;;;;;;;;;;;;;;16.48;32.37;96089.22;6096854;19;1563;-60
2022/11/27 08:34:06;;;;;;;;;;;;;;;16.82;33.16;96080.41;6120970;19;2128;-67
2022/11/27 08:36:10;;;;;;;;;;;;;;;16.74;31.70;96081.19;6124049;19;2078;-67
2022/11/27 08:38:14;;;;;;;;;;;;;;;16.12;31.89;96069.97;6121569;19;954;-66
2022/11/27 08:40:17;;;;;;;;;;;;;;;16.03;31.85;96063.81;6121180;19;1594;-67
2022/11/27 08:42:20;;;;;;;;;;;;;;;15.91;32.48;96067.72;6115819;19;2025;-65
2022/11/27 08:44:24;;;;;;;;;;;;;;;17.26;32.72;96069.53;6107762;19;2008;-60
2022/11/27 08:46:27;;;;;;;;;;;;;;;18.58;30.89;96068.31;6121624;19;1913;-60
2022/11/27 08:48:30;;;;;;;;;;;;;;;19.27;30.31;96063.97;6122729;19;2086;-59
2022/11/27 08:50:36;;;;;;;;;;;;;;;19.57;30.76;96061.41;6124567;19;2133;-65
2022/11/27 08:52:39;;;;;;;;;;;;;;;19.93;30.21;96058.91;6124405;19;1806;-62
2022/11/27 08:54:43;;;;;;;;;;;;;;;20.20;30.49;96060.13;6095718;19;1977;-63
2022/11/27 08:56:46;;;;;;;;;;;;;;;20.44;30.67;96060.91;6124360;19;1780;-62
2022/11/27 08:58:50;;;;;;;;;;;;;;;20.54;30.06;96045.41;6122517;19;1870;-61
2022/11/27 09:00:53;;;;;;;;;;;;;;;20.65;30.28;96046.78;6125407;19;2143;-62
2022/11/27 09:02:56;;;;;;;;;;;;;;;20.73;30.82;96050.19;6121966;19;2081;-61
2022/11/27 09:05:01;;;;;;;;;;;;;;;20.74;31.12;96049.19;6121288;19;1940;-63
2022/11/27 09:07:07;;;;;;;;;;;;;;;20.84;31.29;96045.38;6095542;19;2087;-62
2022/11/27 09:09:11;;;;;;;;;;;;;;;20.88;30.75;96036.78;6122999;19;1308;-61
2022/11/27 09:11:15;;;;;;;;;;;;;;;20.92;30.70;96031.91;6121227;19;1952;-61
2022/11/27 09:13:18;;;;;;;;;;;;;;;21.00;32.46;96040.63;6120614;19;1853;-73
2022/11/27 09:15:22;;;;;;;;;;;;;;;21.09;33.69;96040.53;6125413;19;1874;-73
2022/11/27 09:17:25;;;;;;;;;;;;;;;21.24;33.38;96041.31;6096024;19;1838;-70
2022/11/27 09:19:28;;;;;;;;;;;;;;;21.29;33.67;96043.44;6122395;19;2026;-60
2022/11/27 09:21:32;;;;;;;;;;;;;;;21.34;34.53;96049.00;6123011;19;1933;-62
2022/11/27 09:23:39;;;;;;;;;;;;;;;21.38;33.80;96042.28;6123978;19;1720;-60
2022/11/27 09:25:42;;;;;;;;;;;;;;;21.42;33.63;96033.66;6123999;19;1765;-66
2022/11/27 09:27:45;;;;;;;;;;;;;;;21.43;33.65;96037.19;6122950;19;2099;-61
2022/11/27 09:29:48;;;;;;;;;;;;;;;21.43;33.44;96029.16;6092953;19;1864;-67
2022/11/27 09:31:52;;;;;;;;;;;;;;;21.47;34.11;96032.25;6121457;19;2143;-68
2022/11/27 09:33:55;;;;;;;;;;;;;;;21.43;33.63;96019.28;6121956;19;1998;-67
2022/11/27 09:35:59;;;;;;;;;;;;;;;21.48;33.78;96026.72;6121923;19;1925;-70
2022/11/27 09:38:02;;;;;;;;;;;;;;;21.45;33.45;96021.75;6124643;19;1673;-70
2022/11/27 09:40:09;;;;;;;;;;;;;;;21.44;33.86;96020.94;6107726;19;1075;-72
2022/11/27 09:42:18;;;;;;;;;;;;;;;21.42;33.75;96019.47;6108572;19;1671;-70
2022/11/27 09:44:26;;;;;;;;;;;;;;;21.44;33.65;96023.59;6120203;19;958;-69
2022/11/27 09:46:31;;;;;;;;;;;;;;;21.45;33.59;96009.22;6121730;19;1968;-70
2022/11/27 09:48:35;;;;;;;;;;;;;;;21.47;33.60;96011.69;6123378;19;1742;-67
2022/11/27 09:50:48;;;;;;;;;;;;;;;21.46;33.66;96012.72;6120360;19;1778;-66
2022/11/27 09:52:55;;;;;;;;;;;;;;;21.43;33.66;95992.53;6095693;19;2055;-66
2022/11/27 09:55:01;;;;;;;;;;;;;;;21.39;33.28;95996.59;6119478;19;1925;-60
2022/11/27 09:57:08;;;;;;;;;;;;;;;21.37;33.51;95992.47;6120027;19;2056;-59
2022/11/27 09:59:16;;;;;;;;;;;;;;;21.32;33.65;95989.56;6121018;19;1681;-61
2022/11/27 10:01:23;;;;;;;;;;;;;;;21.30;33.57;95986.25;6120078;19;1884;-60
2022/11/27 10:03:27;;;;;;;;;;;;;;;21.27;33.65;95981.28;6094284;19;1908;-61
2022/11/27 10:05:37;;;;;;;;;;;;;;;21.22;33.46;95977.34;6117619;19;1308;-60
2022/11/27 10:07:45;;;;;;;;;;;;;;;21.14;33.84;95974.78;6121635;19;2086;-61
2022/11/27 10:09:55;;;;;;;;;;;;;;;21.16;33.61;95964.72;6122957;19;1791;-60
2022/11/27 10:12:03;;;;;;;;;;;;;;;21.15;34.04;95971.09;6122716;19;1935;-62
2022/11/27 10:14:18;;;;;;;;;;;;;;;21.13;34.25;95965.09;6114286;19;1855;-61
2022/11/27 10:16:25;;;;;;;;;;;;;;;21.17;34.23;95966.41;6106662;19;2110;-61
2022/11/27 10:18:33;;;;;;;;;;;;;;;21.07;34.30;95965.88;6119225;19;1046;-61
2022/11/27 10:20:42;;;;;;;;;;;;;;;21.08;34.26;95962.16;6117636;19;1029;-61
2022/11/27 10:22:52;;;;;;;;;;;;;;;21.14;34.18;95961.44;6122580;19;2083;-61
2022/11/27 10:25:02;;;;;;;;;;;;;;;21.15;34.09;95954.22;6118598;19;2085;-61
2022/11/27 10:27:10;;;;;;;;;;;;;;;21.14;34.18;95961.44;6093284;19;2089;-62
2022/11/27 10:29:26;;;;;;;;;;;;;;;21.14;33.93;95950.75;6119990;19;2085;-62
2022/11/27 10:31:34;;;;;;;;;;;;;;;21.13;33.88;95941.03;6118010;19;1887;-62
2022/11/27 10:33:42;;;;;;;;;;;;;;;21.13;34.17;95938.38;6117984;19;1845;-61
2022/11/27 10:35:48;;;;;;;;;;;;;;;21.15;33.75;95931.00;6118493;19;1625;-60
2022/11/27 10:37:56;;;;;;;;;;;;;;;21.18;33.75;95935.16;6097197;19;2099;-63
2022/11/27 10:40:01;;;;;;;;;;;;;;;21.18;33.73;95930.63;6121871;19;2081;-62
2022/11/27 10:42:07;;;;;;;;;;;;;;;21.11;34.11;95939.59;6121351;19;2119;-62
2022/11/27 10:44:20;;;;;;;;;;;;;;;21.14;34.25;95940.03;6118291;19;1033;-60
2022/11/27 10:46:26;;;;;;;;;;;;;;;21.13;34.04;95933.03;6119431;19;2124;-61
2022/11/27 10:48:30;;;;;;;;;;;;;;;21.19;34.03;95929.63;6118460;19;979;-61
2022/11/27 10:50:33;;;;;;;;;;;;;;;21.22;34.50;95934.56;6092374;19;2077;-62
2022/11/27 10:52:36;;;;;;;;;;;;;;;21.18;34.27;95925.31;6121509;19;2119;-62
2022/11/27 10:54:40;;;;;;;;;;;;;;;21.19;34.39;95931.47;6118868;19;1886;-63
2022/11/27 10:56:57;;;;;;;;;;;;;;;21.20;34.42;95923.28;6119601;19;2205;-61
2022/11/27 10:59:03;;;;;;;;;;;;;;;21.19;34.46;95924.28;6117761;19;1062;-61